Time;durP1;ratioP1;P1;durP2;ratioP2;P2;SDS_P1;SDS_P2;PMS_P1;PMS_P2;Temp;Humidity;BMP_temperature;BMP_pressure;BME280_temperature;BME280_humidity;BME280_pressure;Samples;Min_cycle;Max_cycle;Signal;HPM_P1;HPM_P2
2022/11/10 00:00:54;;;;;;;1.20;0.80;;;15.40;59.50;;;14.39;60.33;101111.53;12168284;19;20287;-88
2022/11/10 00:05:15;;;;;;;1.00;0.90;;;15.40;59.40;;;14.47;60.39;101129.38;12175248;19;20880;-88
2022/11/10 00:09:35;;;;;;;1.23;0.75;;;15.40;59.40;;;14.35;60.31;101111.81;12178110;19;20927;-88
2022/11/10 00:18:35;;;;;;;0.65;0.65;;;15.40;59.40;;;14.48;60.37;101141.59;12174051;19;20378;-88
2022/11/10 00:22:56;;;;;;;0.68;0.50;;;15.40;59.40;;;14.49;60.46;101145.91;12179710;19;20914;-88
2022/11/10 00:27:16;;;;;;;1.35;0.75;;;15.50;59.40;;;14.31;60.24;101123.44;12181536;19;20022;-88
2022/11/10 00:31:38;;;;;;;0.63;0.63;;;15.50;59.30;;;14.25;60.13;101121.22;12182066;19;20018;-88
2022/11/10 00:36:00;;;;;;;1.17;0.80;;;15.50;59.30;;;14.17;60.08;101112.03;12178129;19;20019;-88
2022/11/10 00:40:20;;;;;;;0.77;0.77;;;15.40;59.20;;;14.37;60.22;101144.09;12176013;19;20059;-88
2022/11/10 00:44:40;;;;;;;0.93;0.75;;;15.40;59.20;;;14.21;60.20;101128.47;12177111;19;20023;-88
2022/11/10 00:49:01;;;;;;;1.15;0.65;;;15.40;59.10;;;14.26;60.19;101138.69;12176721;19;20386;-86
2022/11/10 00:53:21;;;;;;;0.75;0.75;;;15.40;59.10;;;14.21;60.24;101135.50;12178942;19;20019;-88
2022/11/10 00:57:42;;;;;;;2.40;0.90;;;15.40;59.00;;;14.34;60.17;101157.44;12180927;19;20461;-88
2022/11/10 01:02:03;;;;;;;4.55;0.90;;;15.40;59.00;;;14.41;60.18;101163.13;12179223;19;20022;-88
2022/11/10 01:06:23;;;;;;;0.80;0.80;;;15.40;59.00;;;14.47;60.34;101181.09;12179341;19;20868;-88
2022/11/10 01:10:43;;;;;;;0.65;0.65;;;15.40;59.00;;;14.28;60.34;101152.53;12182929;19;20023;-88
2022/11/10 01:15:05;;;;;;;1.38;0.90;;;15.40;58.90;;;14.45;60.32;101183.84;12180670;19;20015;-88
2022/11/10 01:19:25;;;;;;;1.55;0.70;;;15.50;58.90;;;14.23;60.16;101146.72;12177991;19;20133;-86
2022/11/10 01:23:45;;;;;;;0.60;0.60;;;15.40;58.90;;;14.29;60.29;101156.88;12176657;19;20426;-88
2022/11/10 01:28:06;;;;;;;0.80;0.80;;;15.40;58.80;;;14.48;60.14;101188.06;12180141;19;20026;-87
2022/11/10 01:32:27;;;;;;;1.42;0.80;;;15.50;58.80;;;14.23;60.14;101144.09;12173310;19;20386;-88
2022/11/10 01:36:47;;;;;;;2.08;1.00;;;15.40;58.80;;;14.17;60.16;101140.09;12174454;19;20719;-87
2022/11/10 01:41:10;;;;;;;1.55;0.77;;;15.40;58.70;;;14.44;60.11;101195.28;12174661;19;20279;-87
2022/11/10 01:45:48;;;;;;;1.00;0.68;;;15.50;58.70;;;14.44;60.09;101197.91;12174546;19;20026;-89
2022/11/10 01:50:08;;;;;;;0.70;0.70;;;15.40;58.60;;;14.21;60.19;101172.28;12176575;19;20784;-87
2022/11/10 01:54:35;;;;;;;0.73;0.73;;;15.40;58.60;;;14.11;60.06;101162.34;12174344;19;20038;-88
2022/11/10 01:59:01;;;;;;;1.08;1.08;;;15.40;58.60;;;14.41;60.09;101221.75;12175830;19;20014;-87
2022/11/10 02:03:46;;;;;;;1.30;0.70;;;15.40;58.50;;;14.35;60.14;101224.78;12185671;19;20022;-87
2022/11/10 02:08:07;;;;;;;0.50;0.50;;;15.20;58.50;;;14.38;60.15;101229.84;12180425;19;20042;-87
2022/11/10 02:12:38;;;;;;;0.95;0.90;;;15.40;58.50;;;14.39;60.15;101235.00;12172313;19;20022;-86
2022/11/10 02:16:59;;;;;;;0.73;0.73;;;15.40;58.60;;;14.37;60.07;101239.50;12163853;19;20010;-86
2022/11/10 02:21:20;;;;;;;1.40;0.77;;;15.40;58.60;;;14.35;60.01;101241.38;12163966;19;20018;-86
2022/11/10 02:25:41;;;;;;;1.92;0.90;;;15.40;58.60;;;14.41;60.22;101252.44;12165284;19;20018;-87
2022/11/10 02:30:04;;;;;;;0.63;0.57;;;15.40;58.70;;;14.41;60.13;101250.66;12172846;19;20895;-86
2022/11/10 02:34:25;;;;;;;2.42;0.70;;;15.40;58.70;;;14.42;60.14;101254.13;12184205;19;20598;-86
2022/11/10 02:38:45;;;;;;;1.90;0.80;;;15.40;58.60;;;14.43;60.00;101268.97;12175287;19;20022;-85
2022/11/10 02:43:15;;;;;;;0.60;0.60;;;15.40;58.70;;;14.32;60.08;101254.72;12190496;19;20332;-88
2022/11/10 02:47:36;;;;;;;0.73;0.73;;;15.40;58.60;;;14.18;60.11;101228.47;12186319;19;20022;-88
2022/11/10 02:51:57;;;;;;;2.70;0.73;;;15.40;58.60;;;14.41;60.11;101266.44;12187393;19;20014;-88
2022/11/10 02:56:17;;;;;;;1.85;1.08;;;15.40;58.60;;;14.20;60.12;101236.25;12185851;19;20022;-89
2022/11/10 03:00:37;;;;;;;0.75;0.60;;;15.40;58.60;;;14.44;60.18;101287.25;12185768;19;20014;-88
2022/11/10 03:04:58;;;;;;;0.70;0.70;;;15.40;58.50;;;14.36;60.08;101260.63;12190494;19;20485;-88
2022/11/10 03:09:18;;;;;;;1.25;0.60;;;15.40;58.50;;;14.39;60.03;101281.44;12190321;19;20026;-88
2022/11/10 03:13:38;;;;;;;1.08;0.80;;;15.40;58.50;;;14.50;60.01;101304.41;12184538;19;20018;-89
2022/11/10 03:18:03;;;;;;;1.10;0.70;;;15.50;58.50;;;14.45;60.06;101302.09;12191075;19;20019;-88
2022/11/10 03:22:24;;;;;;;2.43;0.90;;;15.50;58.50;;;14.49;59.95;101311.47;12190447;19;20018;-86
2022/11/10 03:26:45;;;;;;;2.13;0.88;;;15.50;58.50;;;14.20;60.12;101271.22;12188773;19;20307;-88
2022/11/10 03:31:05;;;;;;;0.57;0.57;;;15.50;58.40;;;14.47;60.01;101330.91;12182521;19;20014;-88
2022/11/10 03:35:26;;;;;;;2.78;0.82;;;15.50;58.40;;;14.48;59.96;101338.69;12183162;19;20019;-88
2022/11/10 03:39:46;;;;;;;1.83;0.90;;;15.50;58.40;;;14.25;59.89;101294.59;12187426;19;20022;-88
2022/11/10 03:44:07;;;;;;;2.05;0.80;;;15.50;58.30;;;14.49;60.02;101342.16;12182654;19;20416;-88
2022/11/10 03:48:27;;;;;;;3.35;0.95;;;15.50;58.30;;;14.50;60.03;101351.72;12176181;19;20420;-88
2022/11/10 03:52:47;;;;;;;0.82;0.70;;;15.50;58.30;;;14.34;60.01;101328.19;12182923;19;20309;-88
2022/11/10 03:57:08;;;;;;;1.13;0.63;;;15.50;58.20;;;14.42;60.08;101338.22;12180329;19;20308;-88
2022/11/10 04:01:28;;;;;;;1.65;0.82;;;15.50;58.20;;;14.46;59.98;101356.34;12178097;19;20019;-88
2022/11/10 04:10:28;;;;;;;0.52;0.52;;;15.50;58.10;;;14.38;59.80;101359.44;12203006;19;20014;-88
2022/11/10 04:19:29;;;;;;;1.15;0.68;;;15.40;58.00;;;14.42;59.92;101378.50;12183823;19;20015;-87
2022/11/10 04:23:49;;;;;;;0.80;0.80;;;15.40;58.00;;;14.38;59.89;101388.34;12184146;19;20061;-87
2022/11/10 04:28:10;;;;;;;1.15;0.60;;;15.40;58.00;;;14.38;59.88;101398.84;12177883;19;20014;-88
2022/11/10 04:32:30;;;;;;;2.58;1.00;;;15.40;58.10;;;14.38;59.91;101411.16;12182614;19;20733;-88
2022/11/10 04:36:50;;;;;;;0.65;0.60;;;15.40;58.00;;;14.24;59.85;101382.22;12180950;19;20019;-88
2022/11/10 04:41:12;;;;;;;0.98;0.55;;;15.30;58.00;;;14.34;59.88;101414.91;12180825;19;20010;-88
2022/11/10 04:45:33;;;;;;;1.20;0.90;;;15.30;58.10;;;14.27;59.80;101421.47;12181270;19;20045;-88
2022/11/10 04:49:54;;;;;;;0.80;0.70;;;15.30;58.00;;;14.22;59.67;101418.25;12180761;19;20328;-88
2022/11/10 04:54:14;;;;;;;0.90;0.70;;;15.30;57.90;;;14.13;59.72;101409.97;12183178;19;20023;-88
2022/11/10 04:58:35;;;;;;;1.00;0.88;;;15.20;57.90;;;14.25;59.65;101441.72;12182966;19;20769;-88
2022/11/10 05:03:02;;;;;;;1.98;0.60;;;15.20;58.00;;;14.09;59.71;101423.38;12179914;19;20034;-88
2022/11/10 05:07:23;;;;;;;2.70;1.17;;;15.20;58.10;;;14.21;59.65;101448.94;12171555;19;20022;-86
2022/11/10 05:11:43;;;;;;;1.70;0.77;;;15.20;58.10;;;14.16;59.65;101446.56;12168684;19;20018;-88
2022/11/10 05:16:04;;;;;;;0.85;0.68;;;15.10;58.10;;;14.05;59.89;101433.22;12171916;19;20014;-88
2022/11/10 05:20:26;;;;;;;0.60;0.60;;;15.10;58.10;;;13.89;59.70;101416.69;12171874;19;20698;-87
2022/11/10 05:24:46;;;;;;;0.93;0.80;;;15.10;58.10;;;14.18;59.76;101472.75;12170266;19;20014;-87
2022/11/10 05:29:06;;;;;;;1.95;0.75;;;15.10;58.10;;;14.12;59.72;101465.22;12168647;19;20015;-87
2022/11/10 05:33:27;;;;;;;1.08;0.80;;;15.10;58.10;;;14.12;59.71;101481.84;12171381;19;20010;-87
2022/11/10 05:37:47;;;;;;;2.85;0.80;;;15.00;57.90;;;13.92;59.70;101466.38;12189286;19;20587;-87
2022/11/10 05:42:07;;;;;;;0.80;0.70;;;15.00;58.00;;;13.96;59.62;101481.03;12182747;19;20035;-86
2022/11/10 05:46:30;;;;;;;2.00;0.77;;;15.00;57.90;;;13.84;59.64;101485.19;12181382;19;20093;-87
2022/11/10 05:50:50;;;;;;;0.98;0.80;;;15.00;58.00;;;13.85;59.77;101509.66;12184423;19;20026;-87
2022/11/10 05:55:13;;;;;;;2.13;0.98;;;14.90;57.90;;;13.88;59.66;101530.50;12174655;19;20002;-86
2022/11/10 05:59:34;;;;;;;1.00;0.90;;;14.80;57.90;;;13.77;59.50;101525.00;12178437;19;20014;-86
2022/11/10 06:03:54;;;;;;;1.33;0.98;;;14.80;57.90;;;13.71;59.60;101527.03;12187603;19;20579;-87
2022/11/10 06:08:16;;;;;;;1.77;0.90;;;14.70;57.80;;;13.52;59.59;101520.25;12179316;19;20022;-87
2022/11/10 06:12:37;;;;;;;3.22;0.95;;;14.70;57.80;;;13.56;59.63;101548.88;12182896;19;20022;-87
2022/11/10 06:16:57;;;;;;;1.02;0.90;;;14.70;57.80;;;13.54;59.45;101558.63;12183401;19;20023;-87
2022/11/10 06:21:17;;;;;;;1.92;0.90;;;14.60;57.70;;;13.30;59.50;101545.03;12178352;19;20022;-87
2022/11/10 06:25:40;;;;;;;1.88;1.10;;;14.60;57.80;;;13.54;59.56;101591.88;12176892;19;20316;-87
2022/11/10 06:30:01;;;;;;;1.25;1.15;;;14.50;57.90;;;13.25;59.47;101560.13;12191800;19;20797;-88
2022/11/10 06:34:20;;;;;;;0.80;0.77;;;14.40;57.90;;;13.39;59.49;101596.16;12171947;19;20894;-87
2022/11/10 06:38:41;;;;;;;1.70;0.98;;;14.30;58.00;;;13.37;59.48;101611.16;12181759;19;20015;-88
2022/11/10 06:43:02;;;;;;;5.07;1.08;;;14.30;58.40;;;13.01;59.57;101578.00;12198504;19;20790;-88
2022/11/10 06:47:23;;;;;;;1.00;0.85;;;14.30;58.20;;;13.09;59.51;101598.59;12196913;19;20982;-89
2022/11/10 06:51:43;;;;;;;1.98;1.00;;;14.20;58.20;;;13.32;59.35;101652.53;12196064;19;20010;-89
2022/11/10 06:56:04;;;;;;;8.40;1.30;;;14.20;58.20;;;13.26;59.56;101653.69;12190462;19;20014;-88
2022/11/10 07:00:26;;;;;;;1.95;0.90;;;14.20;58.20;;;13.30;59.59;101670.09;12188557;19;20011;-89
2022/11/10 07:04:49;;;;;;;2.17;1.10;;;14.20;58.30;;;12.74;59.68;101591.59;12190498;19;20018;-90
2022/11/10 07:09:09;;;;;;;2.15;1.30;;;14.20;58.30;;;13.26;59.61;101696.50;12186014;19;20019;-89
2022/11/10 07:13:30;;;;;;;1.10;1.05;;;14.20;58.30;;;12.97;59.57;101652.50;12195431;19;20018;-91
2022/11/10 07:17:50;;;;;;;2.35;1.30;;;14.10;58.30;;;12.91;59.76;101653.66;12188297;19;20524;-88
2022/11/10 07:22:11;;;;;;;1.60;1.30;;;14.20;58.30;;;12.94;59.77;101676.28;12183414;19;20039;-90
2022/11/10 07:26:32;;;;;;;1.80;1.33;;;14.10;58.30;;;13.00;59.75;101689.06;12179260;19;20752;-88
2022/11/10 07:30:52;;;;;;;1.52;1.30;;;14.20;58.40;;;13.07;59.89;101701.78;12179142;19;20018;-89
2022/11/10 07:35:12;;;;;;;1.48;1.27;;;14.20;58.50;;;13.17;59.77;101728.38;12177267;19;20011;-88
2022/11/10 07:39:33;;;;;;;3.28;1.08;;;14.20;58.60;;;13.17;59.74;101733.63;12176840;19;20014;-88
2022/11/10 07:43:53;;;;;;;6.85;1.30;;;14.20;58.60;;;13.02;59.87;101710.81;12177147;19;20121;-88
2022/11/10 07:48:13;;;;;;;2.20;1.02;;;14.20;58.60;;;13.34;59.89;101758.19;12159515;19;20151;-89
2022/11/10 07:52:34;;;;;;;1.42;1.13;;;14.20;58.70;;;13.22;59.85;101747.38;12159289;19;20470;-89
2022/11/10 07:56:55;;;;;;;3.90;1.15;;;14.30;58.70;;;13.25;59.95;101752.47;12164629;19;20022;-89
2022/11/10 08:01:15;;;;;;;2.17;1.20;;;14.20;58.80;;;13.19;60.16;101742.28;12170285;19;20056;-89
2022/11/10 08:05:36;;;;;;;3.10;1.35;;;14.40;58.80;;;13.48;59.86;101798.59;12173796;19;20102;-90
2022/11/10 08:09:57;;;;;;;2.15;1.02;;;14.60;58.70;;;13.40;60.17;101792.03;12173887;19;20340;-89
2022/11/10 08:14:17;;;;;;;2.78;1.05;;;14.50;58.60;;;13.28;59.98;101772.47;12168046;19;20026;-89
2022/11/10 08:18:38;;;;;;;3.42;1.50;;;14.50;58.60;;;13.47;60.06;101798.66;12163061;19;21103;-89
2022/11/10 08:23:03;;;;;;;2.58;1.05;;;14.50;58.60;;;13.24;60.00;101766.50;12170878;19;20018;-89
2022/11/10 08:27:24;;;;;;;3.25;1.30;;;14.50;58.50;;;13.45;60.01;101795.28;12164310;19;20453;-89
2022/11/10 08:31:44;;;;;;;3.05;1.17;;;14.60;58.50;;;13.56;59.98;101819.19;12166967;19;20022;-89
2022/11/10 08:36:05;;;;;;;3.88;1.33;;;14.60;58.60;;;13.35;59.93;101786.16;12166999;19;20393;-89
2022/11/10 08:40:26;;;;;;;5.45;1.40;;;14.80;58.60;;;13.58;59.94;101816.47;12166434;19;20019;-89
2022/11/10 08:44:47;;;;;;;1.48;1.23;;;14.60;58.60;;;13.49;60.06;101808.13;12160597;19;20362;-89
2022/11/10 08:49:08;;;;;;;1.10;0.98;;;14.60;58.60;;;13.66;60.08;101836.19;12159348;19;20019;-89
2022/11/10 08:53:29;;;;;;;2.47;1.40;;;14.60;58.60;;;13.58;60.09;101812.06;12164581;19;20010;-89
2022/11/10 08:57:50;;;;;;;4.45;1.48;;;14.70;58.70;;;13.77;60.11;101848.78;12164632;19;20318;-89
2022/11/10 09:02:10;;;;;;;1.52;1.10;;;14.70;58.70;;;13.62;60.02;101831.16;12159903;19;20856;-88
2022/11/10 09:06:31;;;;;;;3.20;1.50;;;14.80;58.80;;;13.76;60.20;101851.47;12163330;19;20014;-88
2022/11/10 09:10:51;;;;;;;2.33;1.20;;;14.90;58.70;;;13.90;60.15;101875.25;12171984;19;20473;-89
2022/11/10 09:15:12;;;;;;;3.30;1.60;;;15.00;58.70;;;13.98;60.09;101883.56;12160074;19;20037;-89
2022/11/10 09:19:32;;;;;;;2.05;1.23;;;15.00;58.60;;;14.13;60.21;101889.84;12150874;19;20422;-89
2022/11/10 09:23:53;;;;;;;3.08;1.50;;;15.10;58.70;;;14.23;60.17;101898.06;12155835;19;20317;-89
2022/11/10 09:28:15;;;;;;;2.78;1.00;;;15.20;58.60;;;14.29;60.16;101898.63;12169073;19;20014;-90
2022/11/10 09:32:36;;;;;;;1.75;0.98;;;15.40;58.60;;;14.15;60.17;101870.44;12177743;19;20015;-90
2022/11/10 09:36:57;;;;;;;3.45;1.13;;;15.50;58.60;;;14.08;60.11;101827.03;12167807;19;20011;-93
2022/11/10 09:41:17;;;;;;;3.15;1.33;;;15.60;58.50;;;14.26;60.15;101850.66;12167899;19;20014;-91
2022/11/10 09:45:43;;;;;;;2.90;1.33;;;15.70;58.40;;;14.59;60.04;101890.09;12168522;19;20023;-92
2022/11/10 09:50:06;;;;;;;3.08;1.40;;;15.80;58.30;;;14.75;60.20;101908.53;12174621;19;20286;-92
2022/11/10 09:54:44;;;;;;;2.97;1.48;;;15.90;58.30;;;14.52;60.19;101851.88;12169882;19;20402;-92
2022/11/10 09:59:24;;;;;;;3.55;1.20;;;16.00;58.40;;;14.70;60.08;101865.84;12169688;19;20483;-91
2022/11/10 10:04:16;;;;;;;3.10;1.30;;;16.10;58.40;;;14.81;60.16;101871.38;12158901;19;20026;-91
2022/11/10 10:09:14;;;;;;;2.30;1.08;;;16.20;58.10;;;15.24;59.94;101924.25;12160127;19;20026;-92
2022/11/10 10:13:56;;;;;;;2.13;1.48;;;16.30;58.10;;;15.38;60.31;101926.09;12171843;19;21117;-92
2022/11/10 10:19:01;;;;;;;2.30;1.17;;;16.40;58.10;;;15.45;60.04;101920.41;12162542;19;20014;-93
2022/11/10 10:23:40;;;;;;;2.42;1.50;;;16.60;57.90;;;15.50;60.09;101925.44;12170539;19;20023;-92
2022/11/10 10:28:33;;;;;;;3.88;1.30;;;16.60;57.70;;;15.57;59.90;101926.75;12192518;19;20022;-91
2022/11/10 10:33:12;;;;;;;4.20;1.90;;;16.70;57.50;;;15.21;59.92;101858.63;12180787;19;20414;-93
2022/11/10 10:37:54;;;;;;;3.60;1.90;;;16.80;57.50;;;15.29;59.90;101874.84;12177667;19;20110;-91
2022/11/10 10:42:49;;;;;;;5.85;1.45;;;16.80;57.50;;;15.34;59.99;101872.81;12169651;19;20014;-91
2022/11/10 10:47:19;;;;;;;3.97;1.30;;;16.80;57.60;;;15.72;59.95;101935.59;12172459;19;20117;-92
2022/11/10 10:51:45;;;;;;;3.88;1.33;;;16.90;57.40;;;15.67;59.74;101916.56;12173627;19;20489;-92
2022/11/10 11:02:27;;;;;;;;;;;;;;;;;;;;;
2022/11/10 11:07:43;;;;;;;1.40;0.90;;;17.00;57.70;;;15.27;59.63;101866.19;12200948;19;20414;-92
2022/11/10 11:12:19;;;;;;;2.55;1.20;;;16.90;57.20;;;15.83;59.62;101943.75;12192704;19;20487;-93
2022/11/10 11:16:53;;;;;;;4.22;1.52;;;17.00;57.10;;;15.35;59.38;101873.63;12185788;19;20812;-93
2022/11/10 11:22:04;;;;;;;8.23;1.77;;;16.90;57.00;;;15.49;59.67;101892.13;12185571;19;20460;-92
2022/11/10 11:26:42;;;;;;;2.95;1.38;;;17.00;57.10;;;15.89;59.54;101953.06;12183552;19;20874;-91
2022/11/10 11:31:54;;;;;;;7.18;1.45;;;16.90;57.00;;;15.37;59.59;101866.50;12198655;19;20474;-93
2022/11/10 11:37:03;;;;;;;4.80;1.00;;;17.00;57.20;;;16.01;59.67;101952.34;12185519;19;20015;-91
2022/11/10 11:41:57;;;;;;;1.42;1.08;;;17.10;57.30;;;16.01;59.40;101940.97;12179721;19;20015;-93
2022/11/10 11:46:40;;;;;;;4.80;1.10;;;17.10;57.20;;;16.19;59.39;101955.69;12172635;19;20066;-91
2022/11/10 11:51:56;;;;;;;1.60;1.05;;;17.20;57.30;;;16.24;59.19;101960.69;12177301;19;20407;-90
2022/11/10 11:56:30;;;;;;;3.28;1.33;;;17.30;57.10;;;16.16;59.14;101929.53;12172778;19;20354;-93
2022/11/10 12:01:22;;;;;;;4.65;1.20;;;17.40;56.90;;;16.06;59.28;101912.56;12176185;19;20010;-92
2022/11/10 12:06:13;;;;;;;2.85;1.60;;;17.40;57.00;;;16.43;59.19;101958.66;12165136;19;20022;-91
2022/11/10 12:10:58;;;;;;;4.10;1.05;;;17.50;56.80;;;16.49;59.27;101960.06;12173427;19;20018;-91
2022/11/10 12:15:39;;;;;;;1.75;1.00;;;17.50;56.70;;;16.40;59.23;101945.66;12172668;19;20014;-90
2022/11/10 12:20:41;;;;;;;3.17;1.23;;;17.60;56.70;;;16.55;59.16;101964.97;12169488;19;20806;-91
2022/11/10 12:25:20;;;;;;;11.68;1.15;;;17.60;56.60;;;16.60;59.17;101955.00;12172528;19;20019;-91
2022/11/10 12:29:58;;;;;;;3.33;0.73;;;17.70;56.60;;;16.26;58.79;101898.19;12171807;19;20044;-93
2022/11/10 12:34:42;;;;;;;1.52;1.00;;;17.70;56.40;;;16.18;58.83;101879.38;12168703;19;20015;-92
2022/11/10 12:39:18;;;;;;;0.98;0.80;;;17.70;56.30;;;16.72;58.84;101978.00;12168920;19;20014;-92
2022/11/10 12:44:06;;;;;;;10.23;2.20;;;17.80;56.30;;;16.59;58.93;101963.84;12170664;19;20014;-91
2022/11/10 12:48:44;;;;;;;2.47;1.00;;;17.80;56.30;;;16.30;58.72;101921.63;12169194;19;20018;-91
2022/11/10 12:53:23;;;;;;;4.18;1.60;;;17.80;56.30;;;16.47;58.59;101947.00;12163950;19;20018;-92
2022/11/10 12:57:44;;;;;;;3.83;1.20;;;17.80;56.20;;;16.58;58.70;101962.16;12163990;19;20830;-91
2022/11/10 13:02:26;;;;;;;1.83;0.88;;;17.90;56.40;;;16.89;58.67;102013.91;12165077;19;20578;-91
2022/11/10 13:07:00;;;;;;;1.77;0.85;;;17.90;56.10;;;16.53;58.74;101958.97;12173188;19;20322;-91
2022/11/10 13:11:30;;;;;;;1.60;0.98;;;17.90;56.20;;;16.93;58.47;102020.72;12170324;19;20078;-91
2022/11/10 13:15:59;;;;;;;3.03;0.93;;;17.90;56.20;;;16.54;58.57;101958.84;12163237;19;20030;-91
2022/11/10 13:20:38;;;;;;;2.80;0.93;;;18.00;56.10;;;16.95;58.44;102033.81;12181087;19;20026;-92
2022/11/10 13:25:40;;;;;;;2.10;1.00;;;18.00;56.00;;;16.91;58.45;102033.16;12165226;19;20036;-90
2022/11/10 13:30:01;;;;;;;1.52;0.98;;;18.00;56.00;;;16.89;58.34;102036.81;12162013;19;20027;-91
2022/11/10 13:34:36;;;;;;;1.88;1.13;;;17.90;55.80;;;16.46;58.46;101962.91;12162870;19;20074;-92
2022/11/10 13:39:14;;;;;;;1.92;0.90;;;17.90;55.80;;;16.84;58.57;102016.00;12171119;19;20125;-91
2022/11/10 13:43:54;;;;;;;4.93;1.10;;;17.90;55.80;;;16.85;58.44;102030.91;12165579;19;20019;-91
2022/11/10 13:48:17;;;;;;;1.17;0.88;;;18.00;55.80;;;16.99;58.50;102045.88;12162024;19;20018;-90
2022/11/10 13:53:14;;;;;;;3.75;0.98;;;18.00;55.70;;;16.80;58.15;102012.69;12164135;19;20970;-91
2022/11/10 13:57:40;;;;;;;3.35;0.80;;;18.00;55.60;;;17.02;58.21;102043.06;12173274;19;20086;-91
2022/11/10 14:02:32;;;;;;;3.10;1.30;;;18.00;55.10;;;16.99;57.87;102062.56;12168216;19;20090;-91
2022/11/10 14:07:00;;;;;;;4.22;2.08;;;18.00;55.30;;;17.00;57.91;102055.50;12173918;19;20279;-92
2022/11/10 14:11:54;;;;;;;1.77;0.80;;;18.00;55.10;;;16.55;57.99;101991.34;12174692;19;20018;-92
2022/11/10 14:16:24;;;;;;;2.33;0.88;;;18.00;55.20;;;16.97;57.92;102061.81;12171214;19;20015;-91
2022/11/10 14:20:52;;;;;;;4.10;1.00;;;18.00;55.20;;;16.64;58.02;102018.97;12174543;19;20837;-90
2022/11/10 14:25:37;;;;;;;2.25;0.80;;;17.90;55.10;;;16.79;58.06;102047.91;12172001;19;20475;-90
2022/11/10 14:30:17;;;;;;;2.03;1.00;;;18.00;55.20;;;16.97;57.94;102082.06;12172761;19;20414;-92
2022/11/10 14:34:52;;;;;;;1.02;0.90;;;17.90;55.20;;;16.82;57.68;102060.06;12171926;19;20110;-90
2022/11/10 14:39:14;;;;;;;3.08;1.05;;;17.90;55.10;;;16.86;57.77;102071.31;12172644;19;20938;-90
2022/11/10 14:43:39;;;;;;;2.45;0.85;;;17.90;55.20;;;16.78;57.56;102083.16;12177620;19;20018;-91
2022/11/10 14:48:15;;;;;;;2.20;0.95;;;17.90;55.20;;;16.85;57.57;102090.72;12180505;19;20458;-90
2022/11/10 14:52:45;;;;;;;2.85;1.15;;;17.90;55.30;;;16.67;57.51;102076.81;12189334;19;20015;-90
2022/11/10 14:57:05;;;;;;;2.15;1.40;;;17.90;55.40;;;16.88;57.48;102123.06;12179188;19;20020;-91
2022/11/10 15:01:34;;;;;;;3.30;1.20;;;17.80;55.30;;;16.85;57.58;102127.66;12184224;19;20466;-90
2022/11/10 15:05:55;;;;;;;3.10;0.98;;;17.80;55.30;;;16.26;57.43;102051.09;12184128;19;20010;-90
2022/11/10 15:10:41;;;;;;;2.33;0.88;;;17.70;55.30;;;16.67;57.51;102140.13;12185873;19;20022;-90
2022/11/10 15:15:01;;;;;;;;;;;17.70;55.30;;;16.69;57.69;102148.75;12186886;19;20026;-90
2022/11/10 15:19:34;;;;;;;6.22;1.13;;;17.70;56.00;;;16.71;57.52;102146.91;12175510;19;20014;-90
2022/11/10 15:24:04;;;;;;;2.80;1.45;;;17.60;55.50;;;16.70;57.57;102161.03;12171643;19;20026;-89
2022/11/10 15:28:34;;;;;;;2.20;1.17;;;17.60;55.50;;;16.69;57.41;102167.22;12161678;19;20454;-89
2022/11/10 15:32:55;;;;;;;1.52;1.27;;;17.60;55.50;;;16.54;57.21;102155.78;12171326;19;20022;-88
2022/11/10 15:37:27;;;;;;;2.08;1.30;;;17.60;55.50;;;16.19;57.22;102108.56;12164164;19;20018;-88
2022/11/10 15:41:49;;;;;;;3.45;1.13;;;17.50;55.60;;;16.47;57.19;102176.41;12167478;19;20906;-89
2022/11/10 15:46:23;;;;;;;1.73;0.90;;;17.50;55.60;;;16.29;57.29;102144.00;12166564;19;20022;-89
2022/11/10 15:50:49;;;;;;;1.35;1.00;;;17.40;55.60;;;16.19;57.33;102124.38;12175628;19;20493;-89
2022/11/10 15:55:20;;;;;;;;;;;17.50;55.70;;;16.40;57.33;102179.47;12171777;19;20038;-89
2022/11/10 15:59:41;;;;;;;1.48;1.13;;;17.40;56.10;;;16.17;57.40;102141.22;12171363;19;21852;-89
2022/11/10 16:04:01;;;;;;;2.17;1.17;;;17.40;55.80;;;16.21;57.42;102150.66;12163502;19;20454;-89
2022/11/10 16:08:22;;;;;;;2.20;1.10;;;17.40;55.80;;;16.26;57.42;102151.25;12165076;19;20030;-90
2022/11/10 16:12:43;;;;;;;1.58;1.10;;;17.30;55.80;;;16.44;57.42;102192.38;12168623;19;20326;-89
2022/11/10 16:17:04;;;;;;;4.50;1.30;;;17.30;55.70;;;16.33;57.31;102182.44;12163003;19;21369;-90
2022/11/10 16:21:25;;;;;;;2.80;1.73;;;17.50;55.70;;;16.17;57.20;102163.13;12164406;19;20040;-90
2022/11/10 16:25:48;;;;;;;3.28;2.15;;;17.20;55.70;;;15.84;57.43;102124.56;12166768;19;20015;-90
2022/11/10 16:30:17;;;;;;;2.58;1.67;;;17.20;55.70;;;16.19;57.44;102184.16;12166405;19;20443;-90
2022/11/10 16:34:37;;;;;;;3.60;1.77;;;17.10;55.70;;;16.26;57.29;102204.81;12168312;19;20014;-89
2022/11/10 16:39:03;;;;;;;4.20;1.48;;;17.10;55.70;;;16.11;57.39;102184.56;12165819;19;20019;-90
2022/11/10 16:43:24;;;;;;;3.88;1.65;;;17.10;56.10;;;15.69;57.24;102128.88;12160767;19;20388;-90
2022/11/10 16:47:49;;;;;;;2.15;1.13;;;17.10;55.80;;;16.07;57.22;102215.53;12164058;19;20011;-89
2022/11/10 16:52:17;;;;;;;3.28;1.73;;;17.00;55.70;;;16.05;57.36;102246.38;12159400;19;20011;-89
2022/11/10 16:56:38;;;;;;;5.28;2.13;;;17.00;55.80;;;15.93;57.22;102240.00;12162604;19;20011;-90
2022/11/10 17:01:00;;;;;;;2.38;1.63;;;16.90;55.80;;;15.87;57.09;102242.94;12160564;19;20118;-89
2022/11/10 17:05:20;;;;;;;2.40;1.77;;;16.80;55.80;;;15.89;57.30;102250.75;12163868;19;20018;-90
2022/11/10 17:09:40;;;;;;;3.33;1.77;;;16.70;55.80;;;15.84;57.17;102240.47;12167471;19;20106;-89
2022/11/10 17:14:01;;;;;;;5.90;2.10;;;16.70;55.80;;;15.80;57.19;102249.47;12167785;19;20014;-91
2022/11/10 17:18:23;;;;;;;7.70;3.35;;;16.70;55.80;;;15.28;57.25;102183.69;12163530;19;20780;-90
2022/11/10 17:22:48;;;;;;;7.30;4.28;;;16.60;55.90;;;15.30;57.38;102204.66;12161980;19;20708;-91
2022/11/10 17:27:09;;;;;;;12.48;7.10;;;16.50;55.90;;;15.28;57.20;102204.72;12164093;19;20006;-89
2022/11/10 17:31:29;;;;;;;6.28;4.25;;;16.40;55.90;;;15.35;57.25;102232.47;12178195;19;20010;-90
2022/11/10 17:35:52;;;;;;;21.95;10.07;;;16.40;56.00;;;15.21;57.35;102232.31;12174605;19;20046;-90
2022/11/10 17:40:21;;;;;;;15.85;7.68;;;16.30;56.00;;;15.37;57.14;102287.66;12174332;19;20018;-91
2022/11/10 17:44:45;;;;;;;9.65;5.35;;;16.30;56.10;;;15.41;57.26;102302.38;12173266;19;20363;-91
2022/11/10 17:49:05;;;;;;;7.13;4.30;;;16.20;56.20;;;14.96;57.18;102235.28;12184425;19;20022;-91
2022/11/10 17:53:29;;;;;;;6.32;3.00;;;16.20;56.30;;;15.27;57.40;102297.78;12181683;19;20038;-91
2022/11/10 17:57:50;;;;;;;4.03;2.75;;;16.10;56.30;;;14.93;57.21;102243.34;12186235;19;20408;-90
2022/11/10 18:02:11;;;;;;;10.25;3.15;;;16.10;56.40;;;15.11;57.24;102278.44;12178680;19;20051;-90
2022/11/10 18:06:31;;;;;;;5.43;3.20;;;16.10;56.50;;;14.83;57.28;102242.97;12180347;19;20101;-90
2022/11/10 18:10:52;;;;;;;3.10;2.67;;;16.00;56.50;;;15.05;57.50;102283.06;12182741;19;20011;-90
2022/11/10 18:15:15;;;;;;;3.58;2.90;;;16.00;56.60;;;14.92;57.57;102271.44;12182124;19;20018;-91
2022/11/10 18:19:38;;;;;;;3.28;2.53;;;15.90;56.60;;;15.09;57.23;102309.22;12186666;19;20538;-91
2022/11/10 18:23:58;;;;;;;4.43;2.65;;;15.90;56.60;;;15.05;57.46;102303.25;12174909;19;20919;-90
2022/11/10 18:28:19;;;;;;;4.55;2.05;;;15.80;56.70;;;14.95;57.54;102294.09;12172385;19;20018;-90
2022/11/10 18:32:40;;;;;;;3.22;2.00;;;15.80;56.70;;;14.85;57.51;102280.53;12174749;19;20022;-90
2022/11/10 18:37:00;;;;;;;4.15;2.10;;;15.80;56.80;;;14.96;57.58;102301.06;12176104;19;20490;-89
2022/11/10 18:45:59;;;;;;;4.10;2.45;;;15.80;56.80;;;14.73;57.58;102286.41;12185326;19;20015;-89